Latest Weather Observations for Launceston

IDT60801

Issued at 11:32 pm EST Saturday 1 October 2016 (issued every 30 minutes, with the page automatically refreshed every 10 minutes)

About weather observations | Map of weather stations | Latest weather observations for TAS | Other Formats
Station Details ID: 091237 Name: LAUNCESTON (TI TREE BEND) Lat: -41.42 Lon: 147.12 Height: 5.0 m
Data from the previous 72 hours. | See also: Recent months at Launceston
Date/Time
EST
Temp
°C
App
Temp
°C
Dew
Point
°C
Rel
Hum
%
Delta-T
°C
Wind Press
QNH
hPa
Press
MSL
hPa
Rain since
9am
mm
Dir  Spd
km/h
Gust
km/h
Spd
kts
Gust
kts
01/11:30pm 9.9 7.1 7.0 82 1.4 NW 11 17 6 9 - - 0.8
01/11:00pm 9.6 8.2 7.2 85 1.1 WNW 4 9 2 5 - - 0.8
01/10:30pm 9.9 7.2 7.2 83 1.3 NW 11 13 6 7 - - 0.8
01/10:00pm 11.3 7.8 7.4 77 1.9 NNW 15 22 8 12 - - 0.8
01/09:30pm 10.4 8.5 7.6 83 1.3 NW 7 13 4 7 - - 0.8
01/09:00pm 10.9 8.0 8.0 82 1.4 NNW 13 20 7 11 - - 0.8
01/08:30pm 11.1 8.2 8.3 83 1.4 NW 13 20 7 11 - - 0.8
01/08:00pm 11.3 8.2 8.7 84 1.3 NW 15 22 8 12 - - 0.8
01/07:30pm 12.1 8.4 9.3 83 1.4 NNW 19 28 10 15 - - 0.8
01/07:00pm 12.6 8.7 9.6 82 1.5 NNW 20 28 11 15 - - 0.8
01/06:30pm 13.2 9.3 9.6 79 1.8 NNW 20 32 11 17 - - 0.8
01/06:00pm 13.6 9.9 9.6 77 2.0 NNW 19 26 10 14 - - 0.8
01/05:30pm 14.4 11.2 10.0 75 2.3 NNW 17 26 9 14 - - 0.8
01/05:00pm 15.1 11.6 10.3 73 2.5 NNW 19 26 10 14 - - 0.8
01/04:30pm 15.2 11.3 10.8 75 2.3 NNW 22 37 12 20 - - 0.8
01/04:00pm 14.7 10.7 10.3 75 2.3 NNW 22 33 12 18 - - 0.8
01/03:30pm 14.6 9.1 10.6 77 2.1 NNW 30 44 16 24 - - 0.8
01/03:00pm 14.1 10.3 11.3 83 1.5 NNW 22 33 12 18 - - 0.8
01/02:30pm 14.4 10.1 10.6 78 2.0 NNW 24 33 13 18 - - 0.6
01/02:00pm 14.0 10.1 10.8 81 1.7 NNW 22 33 12 18 - - 0.6
01/01:30pm 14.4 10.2 11.2 81 1.7 NNW 24 33 13 18 - - 0.6
01/01:00pm 13.4 9.2 11.1 86 1.2 NNW 24 33 13 18 - - 0.6
01/12:30pm 13.2 9.3 10.7 85 1.3 NNW 22 37 12 20 - - 0.6
01/12:00pm 13.7 10.3 10.5 81 1.7 NNW 19 26 10 14 - - 0.6
01/11:30am 13.4 9.8 10.6 83 1.5 NNW 20 32 11 17 - - 0.6
01/11:00am 12.9 9.6 11.0 88 1.0 NNW 19 26 10 14 - - 0.6
01/10:30am 11.7 10.6 10.6 93 0.6 NW 7 20 4 11 - - 0.6
01/10:00am 11.2 9.8 9.6 90 0.8 N 7 15 4 8 - - 0.4
01/09:30am 11.2 8.2 9.3 88 1.0 N 15 22 8 12 - - 0.2
01/09:00am 10.9 8.8 9.8 93 0.6 NNW 11 15 6 8 - - 1.0
01/08:30am 11.1 7.3 9.0 87 1.0 N 19 32 10 17 - - 1.0
01/08:00am 11.1 7.6 8.7 85 1.2 N 17 26 9 14 - - 1.0
01/07:30am 10.2 8.5 8.3 88 0.9 NW 7 11 4 6 - - 1.0
01/07:00am 10.3 9.1 8.1 86 1.1 WNW 4 9 2 5 - - 1.0
01/06:30am 10.5 8.3 7.9 84 1.3 N 9 19 5 10 - - 0.8
01/06:00am 9.5 7.9 7.8 89 0.8 WNW 6 9 3 5 - - 0.8
01/05:30am 9.5 8.3 7.9 90 0.8 NW 4 6 2 3 - - 0.8
01/05:00am 9.1 7.8 7.7 91 0.7 WNW 4 7 2 4 - - 0.8
01/04:30am 9.0 7.1 7.5 90 0.7 N 7 13 4 7 - - 0.6
01/04:00am 8.6 8.1 7.8 95 0.4 CALM 0 2 0 1 - - 0.6
01/03:30am 8.4 7.9 7.8 96 0.3 CALM 0 0 0 0 - - 0.6
01/03:00am 8.5 8.0 7.9 96 0.3 CALM 0 0 0 0 - - 0.6
01/02:30am 8.4 7.9 7.8 96 0.3 CALM 0 0 0 0 - - 0.6
01/02:00am 8.4 7.8 7.6 95 0.4 CALM 0 0 0 0 - - 0.6
01/01:30am 8.3 7.7 7.5 95 0.4 CALM 0 0 0 0 - - 0.6
01/01:00am 8.2 7.2 7.4 95 0.4 W 2 4 1 2 - - 0.6
01/12:30am 8.3 7.0 7.7 96 0.3 NNW 4 6 2 3 - - 0.6
01/12:00am 8.1 7.1 7.3 95 0.4 NNW 2 4 1 2 - - 0.6
 
Date/Time
EST
Temp
°C
App
Temp
°C
Dew
Point
°C
Rel
Hum
%
Delta-T
°C
Wind Press
QNH
hPa
Press
MSL
hPa
Rain since
9am
mm
Dir  Spd
km/h
Gust
km/h
Spd
kts
Gust
kts
30/11:30pm 8.0 7.4 7.2 95 0.4 CALM 0 0 0 0 - - 0.6
30/11:00pm 8.1 7.1 7.3 95 0.4 SW 2 4 1 2 - - 0.6
30/10:30pm 8.2 7.2 7.3 94 0.4 ENE 2 6 1 3 - - 0.6
30/10:00pm 8.7 8.1 7.5 92 0.6 CALM 0 0 0 0 - - 0.6
30/09:30pm 8.9 7.6 7.7 92 0.6 WSW 4 6 2 3 - - 0.6
30/09:00pm 9.3 8.4 7.7 90 0.8 W 2 2 1 1 - - 0.4
30/08:30pm 9.4 7.2 7.7 89 0.8 N 9 13 5 7 - - 0.4
30/08:00pm 10.2 8.5 7.6 84 1.2 NW 6 9 3 5 - - 0.0
30/07:30pm 10.5 8.6 7.6 82 1.4 N 7 11 4 6 - - 0.0
30/07:00pm 11.0 9.0 7.3 78 1.8 NW 7 13 4 7 - - 0.0
30/06:30pm 11.2 9.2 7.3 77 1.9 NW 7 11 4 6 - - 0.0
30/06:00pm 11.5 9.6 7.6 77 1.9 NNW 7 11 4 6 - - 0.0
30/05:30pm 11.6 9.9 7.5 76 2.0 NW 6 7 3 4 - - 0.0
30/05:00pm 12.0 9.8 6.3 68 2.7 NW 7 13 4 7 - - 0.0
30/04:30pm 12.3 8.4 5.2 62 3.3 NW 15 26 8 14 - - 0.0
30/04:00pm 12.6 9.8 8.7 77 1.9 NNW 13 19 7 10 - - 0.0
30/03:30pm 12.3 9.9 8.6 78 1.8 NW 11 17 6 9 - - 0.0
30/03:00pm 12.4 9.3 8.9 79 1.8 NNW 15 20 8 11 - - 0.0
30/02:30pm 12.4 9.6 8.5 77 1.9 NNW 13 19 7 10 - - 0.0
30/02:00pm 12.4 9.2 8.5 77 1.9 NNW 15 22 8 12 - - 0.0
30/01:30pm 12.3 8.8 8.6 78 1.8 NNW 17 24 9 13 - - 0.0
30/01:00pm 12.4 8.5 8.5 77 1.9 NNW 19 30 10 16 - - 0.0
30/12:30pm 12.4 9.0 9.1 80 1.7 NW 17 24 9 13 - - 0.0
30/12:00pm 12.2 9.2 9.2 82 1.5 NW 15 20 8 11 - - 0.0
30/11:30am 12.1 9.2 9.7 85 1.2 NW 15 20 8 11 - - 0.0
30/11:00am 11.6 8.6 9.3 86 1.2 NNW 15 26 8 14 - - 0.0
30/10:30am 10.8 8.3 9.6 92 0.6 NNW 13 19 7 10 - - 0.0
30/10:00am 10.6 8.5 9.7 94 0.5 NW 11 17 6 9 - - 0.0
30/09:30am 10.2 7.6 9.4 95 0.4 NNW 13 17 7 9 - - 0.0
30/09:00am 9.6 8.1 9.1 97 0.2 NW 7 9 4 5 - - 27.0
30/08:30am 9.4 7.9 9.1 98 0.1 NNW 7 11 4 6 - - 27.0
30/08:00am 9.0 7.6 8.7 98 0.1 N 6 9 3 5 - - 27.0
30/07:30am 8.7 7.6 8.4 98 0.1 N 4 6 2 3 - - 27.0
30/07:00am 8.7 7.2 8.4 98 0.1 WNW 6 6 3 3 - - 27.0
30/06:30am 8.5 7.3 8.2 98 0.1 WNW 4 6 2 3 - - 27.0
30/06:00am 8.4 6.8 8.1 98 0.1 NW 6 6 3 3 - - 27.0
30/05:30am 8.2 7.7 7.9 98 0.1 CALM 0 0 0 0 - - 27.0
30/05:00am 8.2 7.7 7.9 98 0.1 CALM 0 0 0 0 - - 27.0
30/04:30am 8.3 7.1 8.0 98 0.1 NE 4 6 2 3 - - 27.0
30/04:00am 8.3 7.8 8.0 98 0.1 CALM 0 2 0 1 - - 27.0
30/03:30am 8.4 8.0 8.1 98 0.1 CALM 0 2 0 1 - - 27.0
30/03:00am 8.4 7.6 8.0 97 0.2 SSE 2 4 1 2 - - 27.0
30/02:30am 8.6 8.2 8.3 98 0.1 CALM 0 0 0 0 - - 27.0
30/02:00am 8.4 7.9 8.0 97 0.2 CALM 0 0 0 0 - - 27.0
30/01:30am 8.6 8.2 8.2 97 0.2 CALM 0 0 0 0 - - 27.0
30/01:00am 8.8 8.4 8.4 97 0.2 CALM 0 2 0 1 - - 27.0
30/12:30am 9.0 8.3 8.6 97 0.2 SSE 2 4 1 2 - - 27.0
30/12:00am 9.5 8.9 9.0 97 0.2 E 2 6 1 3 - - 26.8
 
Date/Time
EST
Temp
°C
App
Temp
°C
Dew
Point
°C
Rel
Hum
%
Delta-T
°C
Wind Press
QNH
hPa
Press
MSL
hPa
Rain since
9am
mm
Dir  Spd
km/h
Gust
km/h
Spd
kts
Gust
kts
29/11:30pm 9.7 9.5 9.2 97 0.2 CALM 0 0 0 0 - - 26.8
29/11:00pm 9.6 8.6 9.0 96 0.3 S 4 4 2 2 - - 26.8
29/10:30pm 10.0 8.8 9.4 96 0.3 SSE 6 6 3 3 - - 26.8
29/10:00pm 10.3 9.5 9.7 96 0.3 ENE 4 6 2 3 - - 26.8
29/09:30pm 10.4 10.4 9.8 96 0.3 CALM 0 0 0 0 - - 26.8
29/09:00pm 10.4 10.0 9.6 95 0.4 W 2 4 1 2 - - 26.8
29/08:30pm 10.3 10.2 9.4 94 0.4 CALM 0 0 0 0 - - 26.8
29/08:00pm 10.5 10.1 9.6 94 0.5 NNE 2 6 1 3 - - 26.8
29/07:30pm 10.6 9.2 9.7 94 0.5 N 7 11 4 6 - - 26.6
29/07:00pm 10.9 7.2 10.0 94 0.5 NNW 20 28 11 15 - - 26.2
29/06:30pm 11.7 10.9 10.9 95 0.4 N 6 30 3 16 - - 25.0
29/06:00pm 12.2 11.5 11.4 95 0.4 S 6 6 3 3 - - 23.8
29/05:30pm 12.3 12.3 11.2 93 0.6 S 2 4 1 2 - - 21.0
29/05:00pm 12.5 12.8 10.9 90 0.8 CALM 0 4 0 2 - - 18.2
29/04:30pm 12.9 12.4 10.8 87 1.1 SSW 4 9 2 5 - - 16.6
29/04:00pm 13.5 9.8 10.1 80 1.8 SE 20 39 11 21 - - 15.4
29/03:30pm 13.2 11.3 10.4 83 1.5 SE 11 20 6 11 - - 14.4
29/03:00pm 13.8 10.1 10.2 79 1.9 ENE 20 39 11 21 - - 13.6
29/02:30pm 13.7 12.3 10.9 83 1.5 ENE 9 20 5 11 - - 13.0
29/02:00pm 13.9 11.3 10.7 81 1.7 E 15 28 8 15 - - 12.0
29/01:30pm 13.7 10.2 10.1 79 1.9 NE 19 28 10 15 - - 11.2
29/01:00pm 14.2 9.8 11.7 85 1.3 N 26 37 14 20 - - 9.8
29/12:30pm 13.9 12.4 11.8 87 1.1 N 11 26 6 14 - - 7.4
29/12:00pm 14.3 9.5 11.6 84 1.4 N 28 50 15 27 - - 4.6
29/11:56am 14.6 9.8 11.6 82 1.6 N 28 50 15 27 - - 4.2
29/11:30am 15.9 13.7 12.1 78 2.1 N 15 44 8 24 - - 3.6
29/11:00am 15.7 14.2 11.9 78 2.1 NNE 11 28 6 15 - - 3.0
29/10:30am 15.6 14.6 12.2 80 1.9 NE 9 28 5 15 - - 2.8
29/10:00am 15.1 14.6 11.9 81 1.7 NE 6 15 3 8 - - 1.2
29/09:30am 15.0 13.4 11.6 80 1.8 ENE 11 19 6 10 - - 0.6
29/09:00am 15.3 12.1 11.1 76 2.2 ENE 19 32 10 17 - - 0.2
29/08:30am 15.3 11.9 10.7 74 2.4 ENE 19 28 10 15 - - 0.0
29/08:00am 15.8 13.0 10.1 69 3.0 ENE 15 35 8 19 - - 0.0
29/07:30am 15.5 12.3 10.1 70 2.8 ENE 17 33 9 18 - - 0.0
29/07:00am 15.4 11.8 10.0 70 2.8 ENE 19 32 10 17 - - 0.0
29/06:30am 14.9 12.1 9.9 72 2.6 ENE 15 26 8 14 - - 0.0
29/06:00am 13.2 11.6 8.9 75 2.2 SE 7 13 4 7 - - 0.0
29/05:30am 10.9 9.5 7.4 79 1.7 SE 4 7 2 4 - - 0.0
29/05:00am 10.4 8.6 7.1 80 1.6 ESE 6 9 3 5 - - 0.0
29/04:30am 10.7 7.8 6.6 76 1.9 E 11 19 6 10 - - 0.0
29/04:00am 11.0 8.6 7.1 77 1.9 SE 9 15 5 8 - - 0.0
29/03:30am 10.7 8.2 6.6 76 1.9 E 9 17 5 9 - - 0.0
29/03:00am 10.7 9.0 7.4 80 1.6 SE 6 7 3 4 - - 0.0
29/02:30am 10.4 8.5 7.5 82 1.4 ESE 7 9 4 5 - - 0.0
29/02:00am 10.0 8.6 7.4 84 1.2 SE 4 9 2 5 - - 0.0
29/01:30am 9.9 7.6 7.3 84 1.2 ESE 9 13 5 7 - - 0.0
29/01:00am 9.2 8.1 7.0 86 1.0 SE 2 6 1 3 - - 0.0
29/12:30am 9.4 7.4 7.3 87 1.0 ESE 7 13 4 7 - - 0.0
29/12:00am 8.9 8.3 7.2 89 0.8 CALM 0 2 0 1 - - 0.0

Other Formats:

Comma delimited format used in spreadsheet applications
http://www.bom.gov.au/fwo/IDT60801/IDT60801.94969.axf

JavaScript Object Notation format (JSON) in row-major order
http://www.bom.gov.au/fwo/IDT60801/IDT60801.94969.json